Terminal Aerodrome Forecast
Issued by NWS Tampa Bay Area, FL

Home | Current Version | Previous Version | Text Only | Print | Product List | Glossary On
Versions: 1 2 3 4 5 6 7 8 9 10 11 12 13
894
FTUS42 KTBW 300536
TAFSRQ
TAF
KSRQ 300536Z 3006/3106 VRB03KT P6SM SCT060 SCT250
      TEMPO 3006/3009 BKN060
     FM301400 28006KT P6SM SCT020 BKN250
     FM301700 25011KT P6SM FEW035 BKN250
     FM302100 30010KT P6SM FEW040 BKN250=

USA.gov is the U.S. government's official web portal to all federal, state and local government web resources and services.